Belgrade, Nebraska
Current Conditions -  °F | °C
As of 4:35 AM on Sunday 21 Dec 2014 (Local Time) from KBVN Reporting Station
Moderate Fog Moderate Fog  
Wind Chill: 23°   Ceiling: 100
Heat Index: 29°   Visibility: 0.5mi
Dew Point: 28°   Wind: 6mph
Humidity: 94%   Direction: 190°S
Pressure: 29.85"   Gusts: NA
Location:  41.47°N, 98.07°W
Report Text: KBVN 211035Z AUTO 19005KT 1/2SM FZFG OVC001 M01/M02 A2985 RMK AO2 T10151023
Loading
Personal Weather Stations






























Interactive Weather Map New forecast layout! Learn more

10-Day Weather Forecast

Advertisements
Track Severe Weather on mobile